Terminal Aerodrome Forecast
Issued by NWS

Current Version | Previous Version | Text Only | Print | Product List | Glossary On
Versions: 1 2 3 4 5 6 7 8 9 10 11 12 13 14 15 16 17 18 19 20 21 22
000
FTUS42 KMLB 232103 AAC
TAFFPR
TAF AMD
KFPR 232103Z 2321/2418 03011G17KT P6SM VCSH FEW011 BKN024 BKN035
      TEMPO 2321/2322 6SM -RA SCT024 SCT035
     FM232200 05009KT P6SM VCSH SCT030 BKN090 BKN250
     FM240600 05005KT P6SM VCSH SCT025 BKN060=

USA.gov is the U.S. government's official web portal to all federal, state and local government web resources and services.